createdAt,value
2019-04-26T00:00:31.656Z,15.84
2019-04-26T00:01:31.883Z,15.77
2019-04-26T00:02:32.118Z,15.77
2019-04-26T00:03:32.337Z,15.72
2019-04-26T00:04:32.563Z,15.72
2019-04-26T00:05:35.262Z,15.70
2019-04-26T00:06:33.017Z,15.67
2019-04-26T00:07:33.240Z,15.59
2019-04-26T00:08:33.467Z,15.58
2019-04-26T00:09:33.694Z,15.57
2019-04-26T00:10:33.911Z,15.55
2019-04-26T00:11:34.139Z,15.54
2019-04-26T00:12:34.365Z,15.44
2019-04-26T00:13:34.593Z,15.52
2019-04-26T00:14:34.818Z,15.49
2019-04-26T00:15:35.045Z,15.37
2019-04-26T00:16:35.273Z,15.35
2019-04-26T00:17:35.497Z,15.28
2019-04-26T00:18:35.725Z,15.29
2019-04-26T00:19:35.952Z,15.17
2019-04-26T00:20:36.176Z,15.09
2019-04-26T00:21:36.401Z,15.10
2019-04-26T00:22:36.625Z,15.06
2019-04-26T00:23:36.849Z,15.00
2019-04-26T00:24:37.078Z,14.96
2019-04-26T00:25:37.304Z,14.94
2019-04-26T00:26:37.534Z,14.86
2019-04-26T00:27:37.765Z,14.82
2019-04-26T00:28:37.989Z,14.84
2019-04-26T00:29:38.213Z,14.69
2019-04-26T00:30:38.443Z,14.66
2019-04-26T00:31:38.670Z,14.62
2019-04-26T00:32:38.892Z,14.54
2019-04-26T00:33:39.120Z,14.59
2019-04-26T00:34:39.354Z,14.53
2019-04-26T00:35:47.358Z,14.41
2019-04-26T00:36:39.802Z,14.30
2019-04-26T00:37:40.027Z,14.25
2019-04-26T00:38:40.255Z,13.90
2019-04-26T00:39:40.475Z,13.92
2019-04-26T00:40:40.701Z,13.87
2019-04-26T00:41:40.928Z,13.99
2019-04-26T00:42:41.157Z,13.96
2019-04-26T00:43:41.385Z,13.90
2019-04-26T00:44:41.612Z,13.81
2019-04-26T00:45:41.835Z,13.65
2019-04-26T00:46:42.064Z,13.65
2019-04-26T00:47:42.295Z,13.78
2019-04-26T00:48:42.518Z,13.74
2019-04-26T00:49:43.769Z,13.81
2019-04-26T00:50:42.973Z,13.75
2019-04-26T00:51:43.200Z,13.62
2019-04-26T00:52:43.509Z,13.39
2019-04-26T00:53:43.657Z,13.33
2019-04-26T00:54:43.885Z,13.37
2019-04-26T00:55:44.109Z,13.33
2019-04-26T00:56:44.333Z,13.44
2019-04-26T00:57:44.561Z,13.53
2019-04-26T00:58:44.788Z,13.54
2019-04-26T00:59:45.016Z,13.41
2019-04-26T01:00:45.242Z,13.42
2019-04-26T01:01:45.469Z,13.57
2019-04-26T01:02:45.692Z,13.56
2019-04-26T01:03:45.918Z,13.54
2019-04-26T01:04:46.129Z,13.60
2019-04-26T01:05:46.352Z,13.53
2019-04-26T01:06:46.579Z,13.47
2019-04-26T01:07:46.805Z,13.49
2019-04-26T01:08:47.033Z,13.41
2019-04-26T01:09:47.262Z,13.56
2019-04-26T01:10:47.479Z,13.50
2019-04-26T01:11:47.707Z,13.57
2019-04-26T01:12:47.929Z,13.65
2019-04-26T01:13:48.152Z,13.67
2019-04-26T01:14:48.375Z,13.62
2019-04-26T01:15:48.604Z,13.68
2019-04-26T01:16:48.832Z,13.75
2019-04-26T01:17:49.055Z,13.72
2019-04-26T01:18:49.278Z,13.70
2019-04-26T01:19:49.508Z,13.67
2019-04-26T01:20:49.731Z,13.75
2019-04-26T01:21:49.956Z,13.77
2019-04-26T01:22:50.182Z,13.65
2019-04-26T01:23:50.410Z,13.74
2019-04-26T01:24:50.636Z,13.75
2019-04-26T01:25:50.859Z,13.71
2019-04-26T01:26:51.079Z,13.72
2019-04-26T01:27:51.299Z,13.79
2019-04-26T01:28:51.526Z,13.81
2019-04-26T01:29:51.758Z,13.79
2019-04-26T01:30:51.982Z,13.77
2019-04-26T01:31:52.209Z,13.75
2019-04-26T01:32:52.435Z,13.83
2019-04-26T01:33:52.661Z,13.93
2019-04-26T01:34:52.884Z,13.85
2019-04-26T01:35:53.170Z,13.78
2019-04-26T01:36:53.334Z,13.78
2019-04-26T01:37:53.561Z,13.83
2019-04-26T01:38:53.790Z,13.79
2019-04-26T01:39:54.014Z,13.77
2019-04-26T01:40:54.238Z,13.68
2019-04-26T01:41:54.464Z,13.74
2019-04-26T01:42:54.681Z,13.60
2019-04-26T01:43:54.920Z,13.53
2019-04-26T01:44:55.129Z,13.59
2019-04-26T01:45:55.354Z,13.53
2019-04-26T01:46:55.578Z,13.52
2019-04-26T01:47:55.802Z,13.56
2019-04-26T01:48:56.030Z,13.41
2019-04-26T01:49:56.255Z,13.35
2019-04-26T01:50:56.482Z,13.13
2019-04-26T01:51:56.714Z,13.13
2019-04-26T01:52:56.939Z,13.08
2019-04-26T01:53:57.164Z,13.11
2019-04-26T01:54:57.391Z,12.95
2019-04-26T01:55:57.613Z,12.87
2019-04-26T01:56:57.837Z,12.79
2019-04-26T01:57:58.067Z,12.58
2019-04-26T01:58:58.293Z,12.68
2019-04-26T01:59:58.518Z,12.72
2019-04-26T02:00:58.746Z,12.73
2019-04-26T02:01:58.970Z,12.72
2019-04-26T02:02:59.194Z,12.61
2019-04-26T02:03:59.419Z,12.65
2019-04-26T02:04:59.644Z,12.62
2019-04-26T02:05:59.857Z,12.64
2019-04-26T02:07:00.077Z,12.65
2019-04-26T02:08:00.303Z,12.55
2019-04-26T02:09:00.530Z,12.72
2019-04-26T02:10:00.755Z,12.61
2019-04-26T02:11:00.981Z,12.57
2019-04-26T02:12:01.207Z,12.61
2019-04-26T02:13:01.423Z,12.57
2019-04-26T02:14:01.643Z,12.42
2019-04-26T02:15:01.868Z,12.29
2019-04-26T02:16:02.093Z,12.36
2019-04-26T02:17:02.320Z,12.39
2019-04-26T02:18:02.544Z,12.31
2019-04-26T02:19:02.769Z,12.15
2019-04-26T02:20:02.998Z,12.12
2019-04-26T02:21:03.225Z,12.00
2019-04-26T02:22:03.451Z,11.99
2019-04-26T02:23:03.672Z,11.97
2019-04-26T02:24:03.901Z,11.95
2019-04-26T02:25:04.127Z,11.94
2019-04-26T02:26:04.353Z,11.80
2019-04-26T02:27:04.581Z,11.81
2019-04-26T02:28:04.809Z,11.83
2019-04-26T02:29:05.032Z,11.65
2019-04-26T02:30:05.272Z,11.65
2019-04-26T02:31:05.489Z,11.62
2019-04-26T02:32:05.714Z,11.73
2019-04-26T02:33:05.936Z,11.83
2019-04-26T02:34:06.162Z,11.87
2019-04-26T02:35:06.387Z,11.95
2019-04-26T02:36:06.621Z,11.87
2019-04-26T02:37:06.836Z,11.94
2019-04-26T02:38:07.065Z,11.72
2019-04-26T02:39:07.291Z,11.77
2019-04-26T02:40:07.523Z,11.70
2019-04-26T02:41:07.747Z,11.32
2019-04-26T02:42:07.967Z,11.29
2019-04-26T02:43:08.195Z,11.23
2019-04-26T02:44:08.421Z,11.35
2019-04-26T02:45:08.647Z,11.37
2019-04-26T02:46:08.877Z,11.32
2019-04-26T02:47:09.135Z,11.44
2019-04-26T02:48:09.329Z,11.44
2019-04-26T02:49:09.551Z,11.48
2019-04-26T02:50:09.777Z,11.48
2019-04-26T02:51:10.001Z,11.47
2019-04-26T02:52:10.224Z,11.52
2019-04-26T02:53:10.453Z,11.44
2019-04-26T02:54:10.668Z,11.37
2019-04-26T02:55:10.896Z,11.40
2019-04-26T02:56:11.122Z,11.41
2019-04-26T02:57:11.347Z,11.30
2019-04-26T02:58:11.574Z,11.35
2019-04-26T02:59:13.702Z,11.37
2019-04-26T03:00:12.038Z,11.23
2019-04-26T03:01:12.262Z,11.25
2019-04-26T03:02:12.491Z,11.25
2019-04-26T03:03:12.714Z,11.32
2019-04-26T03:04:12.938Z,11.37
2019-04-26T03:05:13.164Z,11.27
2019-04-26T03:06:13.393Z,11.41
2019-04-26T03:07:13.614Z,11.47
2019-04-26T03:08:13.843Z,11.36
2019-04-26T03:09:14.069Z,11.40
2019-04-26T03:10:14.293Z,11.43
2019-04-26T03:11:17.207Z,11.41
2019-04-26T03:12:14.740Z,11.32
2019-04-26T03:13:14.966Z,11.18
2019-04-26T03:14:15.189Z,11.07
2019-04-26T03:15:15.417Z,11.17
2019-04-26T03:16:15.647Z,11.32
2019-04-26T03:17:15.869Z,11.35
2019-04-26T03:18:16.095Z,11.36
2019-04-26T03:19:16.329Z,11.41
2019-04-26T03:20:16.565Z,11.33
2019-04-26T03:21:16.776Z,11.33
2019-04-26T03:22:17.003Z,11.36
2019-04-26T03:23:17.233Z,11.41
2019-04-26T03:24:17.454Z,11.43
2019-04-26T03:25:17.679Z,11.41
2019-04-26T03:26:17.907Z,11.32
2019-04-26T03:27:18.128Z,11.40
2019-04-26T03:28:18.354Z,11.30
2019-04-26T03:29:18.587Z,11.30
2019-04-26T03:30:22.359Z,11.27
2019-04-26T03:31:19.355Z,11.32
2019-04-26T03:32:19.262Z,11.10
2019-04-26T03:33:19.582Z,11.12
2019-04-26T03:34:19.868Z,11.30
2019-04-26T03:35:19.942Z,11.41
2019-04-26T03:36:20.189Z,11.36
2019-04-26T03:37:21.708Z,11.32
2019-04-26T03:38:20.615Z,11.35
2019-04-26T03:39:20.841Z,11.27
2019-04-26T03:40:21.062Z,11.30
2019-04-26T03:41:21.308Z,11.14
2019-04-26T03:42:21.518Z,10.99
2019-04-26T03:43:21.740Z,10.94
2019-04-26T03:44:21.966Z,10.82
2019-04-26T03:45:22.194Z,10.97
2019-04-26T03:46:22.416Z,11.10
2019-04-26T03:47:22.641Z,11.15
2019-04-26T03:48:22.866Z,11.36
2019-04-26T03:49:23.102Z,11.30
2019-04-26T03:50:23.325Z,11.36
2019-04-26T03:51:23.545Z,11.27
2019-04-26T03:52:23.772Z,11.35
2019-04-26T03:53:24.023Z,11.37
2019-04-26T03:54:24.223Z,11.44
2019-04-26T03:55:24.452Z,11.44
2019-04-26T03:56:24.678Z,11.50
2019-04-26T03:57:24.897Z,11.51
2019-04-26T03:58:25.121Z,11.43
2019-04-26T03:59:25.353Z,11.55
2019-04-26T04:00:25.578Z,11.51
2019-04-26T04:01:25.799Z,11.55
2019-04-26T04:02:26.019Z,11.65
2019-04-26T04:03:26.966Z,11.63
2019-04-26T04:04:26.463Z,11.80
2019-04-26T04:05:26.689Z,11.80
2019-04-26T04:06:26.911Z,11.80
2019-04-26T04:07:37.203Z,11.84
2019-04-26T04:08:27.363Z,11.84
2019-04-26T04:09:27.587Z,11.78
2019-04-26T04:10:27.826Z,11.80
2019-04-26T04:11:28.075Z,11.68
2019-04-26T04:12:28.269Z,11.80
2019-04-26T04:13:28.493Z,11.73
2019-04-26T04:14:28.838Z,11.77
2019-04-26T04:15:28.945Z,11.69
2019-04-26T04:16:29.160Z,11.57
2019-04-26T04:17:29.388Z,11.54
2019-04-26T04:18:29.626Z,11.48
2019-04-26T04:19:29.835Z,11.51
2019-04-26T04:20:30.060Z,11.51
2019-04-26T04:21:30.291Z,11.40
2019-04-26T04:22:30.506Z,11.50
2019-04-26T04:23:30.735Z,11.45
2019-04-26T04:24:30.957Z,11.52
2019-04-26T04:25:31.180Z,11.57
2019-04-26T04:26:31.442Z,11.66
2019-04-26T04:27:31.632Z,11.78
2019-04-26T04:28:31.862Z,11.95
2019-04-26T04:29:43.037Z,12.02
2019-04-26T04:30:32.314Z,11.88
2019-04-26T04:31:32.537Z,11.78
2019-04-26T04:32:32.760Z,11.84
2019-04-26T04:33:32.987Z,11.77
2019-04-26T04:34:33.215Z,12.03
2019-04-26T04:35:33.441Z,12.24
2019-04-26T04:36:33.669Z,12.40
2019-04-26T04:37:33.895Z,12.64
2019-04-26T04:38:34.124Z,12.70
2019-04-26T04:39:34.369Z,12.82
2019-04-26T04:40:34.576Z,13.13
2019-04-26T04:41:34.800Z,13.18
2019-04-26T04:42:35.033Z,13.30
2019-04-26T04:43:35.253Z,13.52
2019-04-26T04:44:35.478Z,13.79
2019-04-26T04:45:35.760Z,14.10
2019-04-26T04:46:35.927Z,14.48
2019-04-26T04:47:36.157Z,14.79
2019-04-26T04:48:36.381Z,14.92
2019-04-26T04:49:36.610Z,14.97
2019-04-26T04:50:36.847Z,15.22
2019-04-26T04:51:37.064Z,15.31
2019-04-26T04:52:37.292Z,15.49
2019-04-26T04:53:37.518Z,15.67
2019-04-26T04:54:37.747Z,15.40
2019-04-26T04:55:37.977Z,14.92
2019-04-26T04:56:38.200Z,14.45
2019-04-26T04:57:38.429Z,14.40
2019-04-26T04:58:38.655Z,14.25
2019-04-26T04:59:38.883Z,14.14
2019-04-26T05:00:39.110Z,14.15
2019-04-26T05:01:39.340Z,13.93
2019-04-26T05:02:39.640Z,13.67
2019-04-26T05:03:39.798Z,13.47
2019-04-26T05:04:40.026Z,13.75
2019-04-26T05:05:40.255Z,13.77
2019-04-26T05:06:40.482Z,13.86
2019-04-26T05:07:40.710Z,13.92
2019-04-26T05:08:40.935Z,13.99
2019-04-26T05:09:41.163Z,13.90
2019-04-26T05:10:41.390Z,14.03
2019-04-26T05:11:41.617Z,14.04
2019-04-26T05:12:41.845Z,14.04
2019-04-26T05:13:42.074Z,14.03
2019-04-26T05:14:42.303Z,14.04
2019-04-26T05:15:42.531Z,14.00
2019-04-26T05:16:42.755Z,14.10
2019-04-26T05:17:42.987Z,14.05
2019-04-26T05:18:44.131Z,14.15
2019-04-26T05:19:44.225Z,14.11
2019-04-26T05:20:44.427Z,14.15
2019-04-26T05:21:45.342Z,14.20
2019-04-26T05:22:44.731Z,14.28
2019-04-26T05:23:44.621Z,14.25
2019-04-26T05:24:45.679Z,14.25
2019-04-26T05:25:45.131Z,14.30
2019-04-26T05:26:45.989Z,14.28
2019-04-26T05:27:46.770Z,14.35
2019-04-26T05:28:46.241Z,14.30
2019-04-26T05:29:46.587Z,14.28
2019-04-26T05:30:46.609Z,14.29
2019-04-26T05:31:48.666Z,14.30
2019-04-26T05:32:47.253Z,14.20
2019-04-26T05:33:47.781Z,14.15
2019-04-26T05:34:47.941Z,14.22
2019-04-26T05:35:47.377Z,14.17
2019-04-26T05:36:47.770Z,14.22
2019-04-26T05:37:48.314Z,14.15
2019-04-26T05:38:47.951Z,14.10
2019-04-26T05:39:49.136Z,14.11
2019-04-26T05:40:48.736Z,14.17
2019-04-26T05:41:49.546Z,14.17
2019-04-26T05:42:49.749Z,13.90
2019-04-26T05:43:50.138Z,13.83
2019-04-26T05:44:49.799Z,13.78
2019-04-26T05:45:50.369Z,13.74
2019-04-26T05:46:50.616Z,13.71
2019-04-26T05:48:02.975Z,13.71
2019-04-26T05:48:50.893Z,13.68
2019-04-26T05:49:50.380Z,13.65
2019-04-26T05:50:51.828Z,13.67
2019-04-26T05:51:51.949Z,13.78
2019-04-26T05:52:51.583Z,13.79
2019-04-26T05:53:51.149Z,13.81
2019-04-26T05:54:52.217Z,13.87
2019-04-26T05:55:52.283Z,13.99
2019-04-26T05:56:52.724Z,13.89
2019-04-26T05:57:52.624Z,13.93
2019-04-26T05:58:52.844Z,13.77
2019-04-26T05:59:53.461Z,13.72
2019-04-26T06:00:53.901Z,13.86
2019-04-26T06:01:53.301Z,13.74
2019-04-26T06:02:53.186Z,13.77
2019-04-26T06:03:54.310Z,13.93
2019-04-26T06:04:53.637Z,13.99
2019-04-26T06:05:54.387Z,13.90
2019-04-26T06:06:55.100Z,13.72
2019-04-26T06:07:54.314Z,13.75
2019-04-26T06:08:55.307Z,13.75
2019-04-26T06:09:54.769Z,13.90
2019-04-26T06:10:55.876Z,14.04
2019-04-26T06:11:55.225Z,14.05
2019-04-26T06:12:56.543Z,14.08
2019-04-26T06:13:55.737Z,14.14
2019-04-26T06:14:56.786Z,14.25
2019-04-26T06:15:56.129Z,14.12
2019-04-26T06:16:56.945Z,14.12
2019-04-26T06:17:57.284Z,14.14
2019-04-26T06:18:57.312Z,14.22
2019-04-26T06:19:57.330Z,14.17
2019-04-26T06:20:57.345Z,14.26
2019-04-26T06:21:57.934Z,14.20
2019-04-26T06:22:59.166Z,14.30
2019-04-26T06:23:57.955Z,14.29
2019-04-26T06:24:58.165Z,14.22
2019-04-26T06:26:01.396Z,14.36
2019-04-26T06:27:11.910Z,14.23
2019-04-26T06:27:58.860Z,14.25
2019-04-26T06:28:59.111Z,14.28
2019-04-26T06:29:59.296Z,14.36
2019-04-26T06:30:59.526Z,14.29
2019-04-26T06:32:00.481Z,14.41
2019-04-26T06:33:03.173Z,14.30
2019-04-26T06:34:00.944Z,14.37
2019-04-26T06:35:01.395Z,14.45
2019-04-26T06:36:01.680Z,14.45
2019-04-26T06:37:00.880Z,14.43
2019-04-26T06:38:01.838Z,14.44
2019-04-26T06:39:02.115Z,14.54
2019-04-26T06:40:02.228Z,14.58
2019-04-26T06:41:02.524Z,14.55
2019-04-26T06:42:02.897Z,14.54
2019-04-26T06:43:02.726Z,14.55
2019-04-26T06:44:02.747Z,14.54
2019-04-26T06:45:02.937Z,14.70
2019-04-26T06:46:02.920Z,14.65
2019-04-26T06:47:04.023Z,14.62
2019-04-26T06:48:03.965Z,14.69
2019-04-26T06:49:03.617Z,14.85
2019-04-26T06:50:03.829Z,14.84
2019-04-26T06:51:04.881Z,14.97
2019-04-26T06:52:05.076Z,14.92
2019-04-26T06:53:04.505Z,14.81
2019-04-26T06:54:05.564Z,14.78
2019-04-26T06:55:04.961Z,14.86
2019-04-26T06:56:05.192Z,15.04
2019-04-26T06:57:10.580Z,14.92
2019-04-26T06:58:05.645Z,15.06
2019-04-26T06:59:05.924Z,15.25
2019-04-26T07:00:06.667Z,15.33
2019-04-26T07:01:06.324Z,15.42
2019-04-26T07:02:06.550Z,15.28
2019-04-26T07:03:07.775Z,15.43
2019-04-26T07:04:07.010Z,15.57
2019-04-26T07:05:07.229Z,15.51
2019-04-26T07:06:07.454Z,15.58
2019-04-26T07:07:07.682Z,15.61
2019-04-26T07:08:09.057Z,15.44
2019-04-26T07:09:08.140Z,15.51
2019-04-26T07:10:08.368Z,15.59
2019-04-26T07:11:09.594Z,15.65
2019-04-26T07:12:08.824Z,15.79
2019-04-26T07:13:09.762Z,15.68
2019-04-26T07:14:09.274Z,15.77
2019-04-26T07:15:09.499Z,15.79
2019-04-26T07:16:19.681Z,15.94
2019-04-26T07:17:09.955Z,15.98
2019-04-26T07:18:10.763Z,15.86
2019-04-26T07:19:11.208Z,15.90
2019-04-26T07:20:11.599Z,15.95
2019-04-26T07:21:10.866Z,16.05
2019-04-26T07:22:11.087Z,16.13
2019-04-26T07:23:11.319Z,16.10
2019-04-26T07:24:11.542Z,16.12
2019-04-26T07:25:11.769Z,16.12
2019-04-26T07:26:11.998Z,16.10
2019-04-26T07:27:13.132Z,16.16
2019-04-26T07:28:12.588Z,16.12
2019-04-26T07:29:12.684Z,16.32
2019-04-26T07:30:12.925Z,16.38
2019-04-26T07:31:13.294Z,16.35
2019-04-26T07:32:13.362Z,16.38
2019-04-26T07:33:13.589Z,16.42
2019-04-26T07:34:13.816Z,16.60
2019-04-26T07:35:14.045Z,16.61
2019-04-26T07:36:14.270Z,16.64
2019-04-26T07:37:14.498Z,16.69
2019-04-26T07:38:14.727Z,16.90
2019-04-26T07:39:20.064Z,16.93
2019-04-26T07:40:15.190Z,16.96
2019-04-26T07:41:15.408Z,16.99
2019-04-26T07:42:15.637Z,16.96
2019-04-26T07:43:15.860Z,16.87
2019-04-26T07:44:16.102Z,16.89
2019-04-26T07:45:16.315Z,16.89
2019-04-26T07:46:16.543Z,16.93
2019-04-26T07:47:16.773Z,17.05
2019-04-26T07:48:17.001Z,16.93
2019-04-26T07:49:17.228Z,17.01
2019-04-26T07:50:17.459Z,16.93
2019-04-26T07:51:17.684Z,16.97
2019-04-26T07:52:17.913Z,16.97
2019-04-26T07:53:18.141Z,17.01
2019-04-26T07:54:18.371Z,17.01
2019-04-26T07:55:18.601Z,16.97
2019-04-26T07:56:18.827Z,16.96
2019-04-26T07:57:19.054Z,16.96
2019-04-26T07:58:19.285Z,17.01
2019-04-26T07:59:19.517Z,16.87
2019-04-26T08:00:19.746Z,16.89
2019-04-26T08:01:19.977Z,16.74
2019-04-26T08:02:20.203Z,16.74
2019-04-26T08:03:20.430Z,16.61
2019-04-26T08:04:20.656Z,16.61
2019-04-26T08:05:20.886Z,16.65
2019-04-26T08:06:21.114Z,16.49
2019-04-26T08:07:21.343Z,16.66
2019-04-26T08:08:21.571Z,16.64
2019-04-26T08:09:26.728Z,16.61
2019-04-26T08:10:22.025Z,16.64
2019-04-26T08:11:22.256Z,16.58
2019-04-26T08:12:22.478Z,16.54
2019-04-26T08:13:22.708Z,16.49
2019-04-26T08:14:22.936Z,16.56
2019-04-26T08:15:24.946Z,16.65
2019-04-26T08:16:23.393Z,16.57
2019-04-26T08:17:23.618Z,16.61
2019-04-26T08:18:23.849Z,16.64
2019-04-26T08:19:24.075Z,16.65
2019-04-26T08:20:24.304Z,16.64
2019-04-26T08:21:24.530Z,16.60
2019-04-26T08:22:28.654Z,16.66
2019-04-26T08:23:38.402Z,16.58
2019-04-26T08:24:27.993Z,16.69
2019-04-26T08:25:25.447Z,16.66
2019-04-26T08:26:26.361Z,16.66
2019-04-26T08:27:25.904Z,16.65
2019-04-26T08:28:26.133Z,16.61
2019-04-26T08:29:26.363Z,16.64
2019-04-26T08:30:26.591Z,16.66
2019-04-26T08:31:27.492Z,16.75
2019-04-26T08:32:28.151Z,16.50
2019-04-26T08:33:27.272Z,16.65
2019-04-26T08:34:29.741Z,16.61
2019-04-26T08:35:27.729Z,16.65
2019-04-26T08:36:28.694Z,16.66
2019-04-26T08:37:28.186Z,16.54
2019-04-26T08:38:28.418Z,16.60
2019-04-26T08:39:44.258Z,16.60
2019-04-26T08:40:31.220Z,16.57
2019-04-26T08:41:29.096Z,16.65
2019-04-26T08:42:29.324Z,16.84
2019-04-26T08:43:30.774Z,16.66
2019-04-26T08:44:29.780Z,16.75
2019-04-26T08:45:30.004Z,16.78
2019-04-26T08:46:32.278Z,16.90
2019-04-26T08:47:30.461Z,16.91
2019-04-26T08:48:30.688Z,17.02
2019-04-26T08:49:30.926Z,16.96
2019-04-26T08:50:31.144Z,17.12
2019-04-26T08:51:31.373Z,17.16
2019-04-26T08:52:31.602Z,17.11
2019-04-26T08:53:31.829Z,17.14
2019-04-26T08:54:32.698Z,17.20
2019-04-26T08:55:32.284Z,17.39
2019-04-26T08:56:32.514Z,17.33
2019-04-26T08:57:32.739Z,17.39
2019-04-26T08:58:32.969Z,17.44
2019-04-26T08:59:33.197Z,17.42
2019-04-26T09:00:33.427Z,17.41
2019-04-26T09:01:33.652Z,17.34
2019-04-26T09:02:33.887Z,17.44
2019-04-26T09:03:34.109Z,17.45
2019-04-26T09:04:34.334Z,17.39
2019-04-26T09:05:34.616Z,17.36
2019-04-26T09:06:34.792Z,17.48
2019-04-26T09:07:36.380Z,17.45
2019-04-26T09:08:35.245Z,17.42
2019-04-26T09:09:35.473Z,17.48
2019-04-26T09:10:39.338Z,17.41
2019-04-26T09:11:35.929Z,17.46
2019-04-26T09:12:36.153Z,17.36
2019-04-26T09:13:36.383Z,17.34
2019-04-26T09:14:36.614Z,17.42
2019-04-26T09:15:36.842Z,17.33
2019-04-26T09:16:49.650Z,17.36
2019-04-26T09:17:37.298Z,17.30
2019-04-26T09:18:43.479Z,17.26
2019-04-26T09:19:37.751Z,17.34
2019-04-26T09:20:38.565Z,17.42
2019-04-26T09:21:38.255Z,17.45
2019-04-26T09:22:38.436Z,17.41
2019-04-26T09:23:40.251Z,17.48
2019-04-26T09:24:38.896Z,17.45
2019-04-26T09:25:39.489Z,17.45
2019-04-26T09:26:42.605Z,17.48
2019-04-26T09:27:39.575Z,17.46
2019-04-26T09:28:39.822Z,17.46
2019-04-26T09:29:40.053Z,17.46
2019-04-26T09:30:42.306Z,17.45
2019-04-26T09:31:40.510Z,17.45
2019-04-26T09:32:40.735Z,17.45
2019-04-26T09:33:40.961Z,17.30
2019-04-26T09:34:41.622Z,16.99
2019-04-26T09:35:41.416Z,17.06
2019-04-26T09:36:41.643Z,17.22
2019-04-26T09:37:41.871Z,17.16
2019-04-26T09:38:42.109Z,17.22
2019-04-26T09:39:43.417Z,17.29
2019-04-26T09:40:42.553Z,17.41
2019-04-26T09:41:42.780Z,17.42
2019-04-26T09:42:43.012Z,17.38
2019-04-26T09:43:43.239Z,17.57
2019-04-26T09:44:43.469Z,17.41
2019-04-26T09:45:43.695Z,17.54
2019-04-26T09:46:44.420Z,17.60
2019-04-26T09:47:44.147Z,17.52
2019-04-26T09:48:44.375Z,17.59
2019-04-26T09:49:44.603Z,17.57
2019-04-26T09:50:44.833Z,17.70
2019-04-26T09:51:45.061Z,17.60
2019-04-26T09:52:45.288Z,17.68
2019-04-26T09:53:45.516Z,17.74
2019-04-26T09:54:45.745Z,17.65
2019-04-26T09:55:45.971Z,17.57
2019-04-26T09:56:46.198Z,17.54
2019-04-26T09:57:46.427Z,17.65
2019-04-26T09:58:46.657Z,17.64
2019-04-26T09:59:46.886Z,17.52
2019-04-26T10:00:48.609Z,17.56
2019-04-26T10:01:47.339Z,17.42
2019-04-26T10:02:47.567Z,17.42
2019-04-26T10:03:47.796Z,17.49
2019-04-26T10:04:48.024Z,17.56
2019-04-26T10:05:48.255Z,17.44
2019-04-26T10:06:48.482Z,17.34
2019-04-26T10:07:48.711Z,17.23
2019-04-26T10:08:48.939Z,17.36
2019-04-26T10:09:51.823Z,17.31
2019-04-26T10:10:51.594Z,17.27
2019-04-26T10:11:49.637Z,17.04
2019-04-26T10:12:49.852Z,17.09
2019-04-26T10:13:50.080Z,17.02
2019-04-26T10:14:50.305Z,16.83
2019-04-26T10:15:50.533Z,16.90
2019-04-26T10:16:50.764Z,16.96
2019-04-26T10:17:51.164Z,16.79
2019-04-26T10:18:54.456Z,16.83
2019-04-26T10:19:51.447Z,16.94
2019-04-26T10:20:51.672Z,16.93
2019-04-26T10:21:51.901Z,17.01
2019-04-26T10:22:52.129Z,16.90
2019-04-26T10:23:52.358Z,17.06
2019-04-26T10:24:52.586Z,16.84
2019-04-26T10:25:53.649Z,17.05
2019-04-26T10:26:55.391Z,17.09
2019-04-26T10:27:53.269Z,17.19
2019-04-26T10:28:53.498Z,17.15
2019-04-26T10:29:56.622Z,16.99
2019-04-26T10:30:53.955Z,17.05
2019-04-26T10:31:54.184Z,17.05
2019-04-26T10:32:54.411Z,17.06
2019-04-26T10:33:54.640Z,17.11
2019-04-26T10:34:54.878Z,17.05
2019-04-26T10:35:56.610Z,17.04
2019-04-26T10:36:56.983Z,17.01
2019-04-26T10:37:55.561Z,16.93
2019-04-26T10:38:58.427Z,17.09
2019-04-26T10:39:56.017Z,17.04
2019-04-26T10:40:56.246Z,17.02
2019-04-26T10:41:56.478Z,17.09
2019-04-26T10:42:56.705Z,17.06
2019-04-26T10:43:56.935Z,16.96
2019-04-26T10:44:57.163Z,17.02
2019-04-26T10:45:57.391Z,17.04
2019-04-26T10:46:59.889Z,17.05
2019-04-26T10:47:57.845Z,16.81
2019-04-26T10:49:08.203Z,16.84
2019-04-26T10:49:59.251Z,16.84
2019-04-26T10:50:58.558Z,16.78
2019-04-26T10:51:58.786Z,16.75
2019-04-26T10:52:59.001Z,16.65
2019-04-26T10:54:01.729Z,16.61
2019-04-26T10:54:59.461Z,16.68
2019-04-26T10:55:59.687Z,16.65
2019-04-26T10:56:59.918Z,16.64
2019-04-26T10:58:00.141Z,16.56
2019-04-26T10:59:00.365Z,16.60
2019-04-26T11:00:00.598Z,16.64
2019-04-26T11:01:00.820Z,16.58
2019-04-26T11:02:01.048Z,16.64
2019-04-26T11:03:04.545Z,16.66
2019-04-26T11:04:01.559Z,16.75
2019-04-26T11:05:01.736Z,16.60
2019-04-26T11:06:01.958Z,16.60
2019-04-26T11:07:03.444Z,16.60
2019-04-26T11:08:02.417Z,16.71
2019-04-26T11:09:02.647Z,16.65
2019-04-26T11:10:03.105Z,16.72
2019-04-26T11:11:03.110Z,16.72
2019-04-26T11:12:03.333Z,16.74
2019-04-26T11:13:03.577Z,16.83
2019-04-26T11:14:03.788Z,16.86
2019-04-26T11:15:06.159Z,16.79
2019-04-26T11:16:07.057Z,16.93
2019-04-26T11:17:04.466Z,16.89
2019-04-26T11:18:04.695Z,16.96
2019-04-26T11:19:04.924Z,16.94
2019-04-26T11:20:06.308Z,16.97
2019-04-26T11:21:05.384Z,17.02
2019-04-26T11:22:05.614Z,17.12
2019-04-26T11:23:08.224Z,17.09
2019-04-26T11:24:06.075Z,16.99
2019-04-26T11:25:06.297Z,17.02
2019-04-26T11:26:06.567Z,17.04
2019-04-26T11:27:09.732Z,17.04
2019-04-26T11:28:06.989Z,17.05
2019-04-26T11:29:07.209Z,16.96
2019-04-26T11:30:11.632Z,16.87
2019-04-26T11:31:07.671Z,16.79
2019-04-26T11:32:07.916Z,16.74
2019-04-26T11:33:11.192Z,16.74
2019-04-26T11:34:08.373Z,16.75
2019-04-26T11:35:08.613Z,16.69
2019-04-26T11:36:08.986Z,16.56
2019-04-26T11:37:09.057Z,16.60
2019-04-26T11:38:09.285Z,16.43
2019-04-26T11:39:09.528Z,16.36
2019-04-26T11:40:10.212Z,16.36
2019-04-26T11:41:09.972Z,16.43
2019-04-26T11:42:11.725Z,16.33
2019-04-26T11:43:10.441Z,16.28
2019-04-26T11:44:10.676Z,16.05
2019-04-26T11:45:14.641Z,15.98
2019-04-26T11:46:11.164Z,15.95
2019-04-26T11:47:11.450Z,15.88
2019-04-26T11:48:11.681Z,15.86
2019-04-26T11:49:11.909Z,15.65
2019-04-26T11:50:12.402Z,15.67
2019-04-26T11:51:12.381Z,15.64
2019-04-26T11:52:12.591Z,15.62
2019-04-26T11:53:12.821Z,15.52
2019-04-26T11:54:13.120Z,15.46
2019-04-26T11:55:14.898Z,15.39
2019-04-26T11:56:13.450Z,15.46
2019-04-26T11:57:13.697Z,15.43
2019-04-26T11:58:13.911Z,15.46
2019-04-26T11:59:14.150Z,15.46
2019-04-26T12:00:14.376Z,15.44
2019-04-26T12:01:14.615Z,15.39
2019-04-26T12:02:16.135Z,15.33
2019-04-26T12:03:15.061Z,15.36
2019-04-26T12:04:15.299Z,15.37
2019-04-26T12:05:15.526Z,15.37
2019-04-26T12:06:15.754Z,15.31
2019-04-26T12:07:15.981Z,15.27
2019-04-26T12:08:16.226Z,15.17
2019-04-26T12:09:16.428Z,15.15
2019-04-26T12:10:16.657Z,15.10
2019-04-26T12:11:18.587Z,15.02
2019-04-26T12:12:17.124Z,14.85
2019-04-26T12:13:17.383Z,14.85
2019-04-26T12:14:20.367Z,14.78
2019-04-26T12:15:29.696Z,14.69
2019-04-26T12:16:18.802Z,14.70
2019-04-26T12:17:18.273Z,14.69
2019-04-26T12:18:18.544Z,14.60
2019-04-26T12:19:19.841Z,14.55
2019-04-26T12:20:22.460Z,14.54
2019-04-26T12:21:19.183Z,14.53
2019-04-26T12:22:19.411Z,14.55
2019-04-26T12:23:21.635Z,14.55
2019-04-26T12:24:19.872Z,14.63
2019-04-26T12:25:20.094Z,14.63
2019-04-26T12:26:21.794Z,14.60
2019-04-26T12:27:20.596Z,14.65
2019-04-26T12:28:20.771Z,14.66
2019-04-26T12:29:20.999Z,14.63
2019-04-26T12:30:26.189Z,14.65
2019-04-26T12:31:21.452Z,14.60
2019-04-26T12:32:21.682Z,14.63
2019-04-26T12:33:21.916Z,14.58
2019-04-26T12:34:22.137Z,14.63
2019-04-26T12:35:22.368Z,14.66
2019-04-26T12:36:22.596Z,14.62
2019-04-26T12:37:22.825Z,14.54
2019-04-26T12:38:24.194Z,14.48
2019-04-26T12:39:23.282Z,14.59
2019-04-26T12:40:23.515Z,14.53
2019-04-26T12:41:39.444Z,14.48
2019-04-26T12:42:23.969Z,14.40
2019-04-26T12:43:25.892Z,14.41
2019-04-26T12:44:24.423Z,14.41
2019-04-26T12:45:24.658Z,14.36
2019-04-26T12:46:27.154Z,14.37
2019-04-26T12:47:25.107Z,14.45
2019-04-26T12:48:25.332Z,14.45
2019-04-26T12:49:25.555Z,14.54
2019-04-26T12:50:29.428Z,14.59
2019-04-26T12:51:26.013Z,14.68
2019-04-26T12:52:26.239Z,14.60
2019-04-26T12:53:30.685Z,14.62
2019-04-26T12:54:26.692Z,14.68
2019-04-26T12:55:26.916Z,14.68